Time;durP1;ratioP1;P1;durP2;ratioP2;P2;SDS_P1;SDS_P2;PMS_P1;PMS_P2;Temp;Humidity;BMP_temperature;BMP_pressure;BME280_temperature;BME280_humidity;BME280_pressure;Samples;Min_cycle;Max_cycle;Signal;HPM_P1;HPM_P2
2023/10/23 00:01:01;;;;;;;34.40;19.07;;;;;;;-141.97;nan;47661.31;5049421;28;20189;-87
2023/10/23 00:03:26;;;;;;;38.17;18.93;;;;;;;-141.97;nan;47559.44;5030966;28;20602;-87
2023/10/23 00:05:52;;;;;;;35.33;19.33;;;;;;;-141.97;nan;47665.16;5049867;28;20189;-87
2023/10/23 00:08:17;;;;;;;41.00;19.17;;;;;;;-141.97;nan;47599.81;5021331;28;20604;-87
2023/10/23 00:10:44;;;;;;;37.37;19.57;;;;;;;-141.97;nan;47653.63;5013412;28;20269;-88
2023/10/23 00:13:13;;;;;;;31.63;18.40;;;;;;;-141.97;nan;47649.78;5030570;28;20208;-87
2023/10/23 00:15:39;;;;;;;35.03;19.10;;;;;;;-141.97;nan;47669.00;5044065;28;20177;-87
2023/10/23 00:18:04;;;;;;;41.47;19.27;;;;;;;-141.97;nan;47807.41;5052895;28;20188;-87
2023/10/23 00:20:30;;;;;;;37.73;20.43;;;;;;;-141.97;nan;47659.38;5050849;28;20717;-87
2023/10/23 00:22:55;;;;;;;56.57;28.90;;;;;;;-141.97;nan;47680.53;5049682;28;20207;-87
2023/10/23 00:25:21;;;;;;;100.47;46.93;;;;;;;-141.97;nan;47642.09;5063601;28;20209;-87
2023/10/23 00:27:46;;;;;;;85.57;42.07;;;;;;;-141.97;nan;47630.56;5038486;28;20253;-87
2023/10/23 00:30:12;;;;;;;62.77;32.83;;;;;;;-141.97;nan;47638.25;5051856;28;20192;-87
2023/10/23 00:32:37;;;;;;;53.73;24.93;;;;;;;-141.97;nan;47619.03;5034887;28;20272;-87
2023/10/23 00:35:05;;;;;;;35.93;20.30;;;;;;;-141.97;nan;47595.97;5052752;28;20182;-86
2023/10/23 00:37:30;;;;;;;39.00;22.27;;;;;;;-141.97;nan;47632.47;5041775;28;20186;-88
2023/10/23 00:39:56;;;;;;;53.07;27.20;;;;;;;-141.97;nan;47624.78;5052613;28;20384;-89
2023/10/23 00:42:21;;;;;;;45.17;21.23;;;;;;;-141.97;nan;47665.16;5034076;28;20189;-89
2023/10/23 00:44:46;;;;;;;46.83;25.17;;;;;;;-141.97;nan;47642.09;5039937;28;20749;-88
2023/10/23 00:47:12;;;;;;;53.87;25.57;;;;;;;-141.97;nan;47617.09;5034199;28;20201;-87
2023/10/23 00:49:38;;;;;;;47.63;23.83;;;;;;;-141.97;nan;47615.19;5052190;28;20653;-87
2023/10/23 00:52:05;;;;;;;40.30;21.30;;;;;;;-141.97;nan;47695.91;5053317;28;20264;-88
2023/10/23 00:54:32;;;;;;;32.97;19.43;;;;;;;-141.97;nan;47688.22;5051792;28;20185;-88
2023/10/23 00:56:58;;;;;;;42.00;19.57;;;;;;;-141.97;nan;47680.53;5034817;28;20567;-87
2023/10/23 00:59:24;;;;;;;35.40;16.93;;;;;;;-141.97;nan;47595.97;5051604;28;20242;-86
2023/10/23 01:01:50;;;;;;;31.70;16.90;;;;;;;-141.97;nan;47669.00;5061017;28;20181;-87
2023/10/23 01:04:16;;;;;;;32.43;17.47;;;;;;;-141.97;nan;47669.00;5051402;28;20235;-86
2023/10/23 01:06:41;;;;;;;30.37;16.33;;;;;;;-141.97;nan;47603.66;5059935;28;20264;-87
2023/10/23 01:09:07;;;;;;;33.03;16.37;;;;;;;-141.97;nan;47665.16;5058559;28;20177;-86
2023/10/23 01:11:33;;;;;;;30.40;15.87;;;;;;;-141.97;nan;47707.44;5075584;28;20181;-87
2023/10/23 01:13:58;;;;;;;31.17;15.97;;;;;;;-141.97;nan;47588.28;5055099;28;20194;-87
2023/10/23 01:16:24;;;;;;;33.43;15.70;;;;;;;-141.97;nan;47824.69;5065742;28;20212;-87
2023/10/23 01:18:49;;;;;;;32.40;15.40;;;;;;;-141.97;nan;47607.50;5054100;28;20714;-87
2023/10/23 01:21:15;;;;;;;28.40;15.73;;;;;;;-141.97;nan;47657.47;5037099;28;20708;-89
2023/10/23 01:23:42;;;;;;;31.00;15.27;;;;;;;-141.97;nan;47655.53;5055452;28;20579;-87
2023/10/23 01:26:08;;;;;;;33.07;15.30;;;;;;;-141.97;nan;47674.78;5054704;28;20178;-88
2023/10/23 01:28:33;;;;;;;30.53;15.40;;;;;;;-141.97;nan;47807.41;5043858;28;20232;-86
2023/10/23 01:30:59;;;;;;;37.40;16.50;;;;;;;-141.97;nan;47563.28;5020916;28;20186;-88
2023/10/23 01:33:24;;;;;;;34.03;15.50;;;;;;;-141.97;nan;47515.22;5037989;28;20231;-87
2023/10/23 01:35:50;;;;;;;29.50;15.57;;;;;;;-141.97;nan;47799.72;5017891;28;20208;-88
2023/10/23 01:38:18;;;;;;;34.70;15.90;;;;;;;-141.97;nan;47688.22;5035056;28;20212;-88
2023/10/23 01:40:43;;;;;;;29.03;16.20;;;;;;;-141.97;nan;47649.78;5033977;28;20241;-87
2023/10/23 01:43:08;;;;;;;27.97;14.90;;;;;;;-141.97;nan;47780.47;5033379;28;20189;-88
2023/10/23 01:45:34;;;;;;;34.63;16.40;;;;;;;-141.97;nan;47697.84;5034258;28;20221;-88
2023/10/23 01:47:59;;;;;;;31.57;16.20;;;;;;;-141.97;nan;47630.56;5033874;28;20194;-87
2023/10/23 01:50:25;;;;;;;33.63;16.70;;;;;;;-141.97;nan;47622.88;5016768;28;20185;-87
2023/10/23 01:52:50;;;;;;;33.43;15.87;;;;;;;-141.97;nan;47611.34;5016290;28;20197;-88
2023/10/23 01:55:16;;;;;;;30.63;16.07;;;;;;;-141.97;nan;47674.78;5033808;28;20174;-88
2023/10/23 01:57:41;;;;;;;32.27;16.47;;;;;;;-141.97;nan;47609.41;5015814;28;20174;-88
2023/10/23 02:00:09;;;;;;;31.20;15.67;;;;;;;-141.97;nan;47655.53;5033782;28;20544;-89
2023/10/23 02:02:35;;;;;;;38.37;16.77;;;;;;;-141.97;nan;47680.53;5035263;28;20554;-88
2023/10/23 02:05:00;;;;;;;28.43;14.73;;;;;;;-141.97;nan;47663.22;5024901;28;20192;-89
2023/10/23 02:07:27;;;;;;;31.10;15.30;;;;;;;-141.97;nan;47644.00;5052517;28;20213;-89
2023/10/23 02:09:53;;;;;;;29.43;14.47;;;;;;;-141.97;nan;47853.53;5053851;28;20192;-89
2023/10/23 02:12:18;;;;;;;27.33;14.67;;;;;;;-141.97;nan;47688.22;5071325;28;20645;-88
2023/10/23 02:14:44;;;;;;;28.87;15.03;;;;;;;-141.97;nan;47703.59;5070620;28;20208;-88
2023/10/23 02:17:09;;;;;;;31.57;15.57;;;;;;;-141.97;nan;47647.84;5054770;28;20185;-89
2023/10/23 02:19:35;;;;;;;28.20;14.57;;;;;;;-141.97;nan;47640.16;5050398;28;20853;-90
2023/10/23 02:22:00;;;;;;;31.47;15.33;;;;;;;-141.97;nan;47692.06;5035810;28;20666;-88
2023/10/23 02:24:26;;;;;;;28.67;15.00;;;;;;;-141.97;nan;47680.53;5052711;28;20585;-88
2023/10/23 02:26:52;;;;;;;38.87;15.87;;;;;;;-141.97;nan;47734.34;5045778;28;20344;-90
2023/10/23 02:29:17;;;;;;;40.93;19.57;;;;;;;-141.97;nan;47695.91;5050702;28;20200;-87
2023/10/23 02:31:43;;;;;;;41.00;19.60;;;;;;;-141.97;nan;47622.88;5050148;28;20193;-87
2023/10/23 02:34:08;;;;;;;42.83;20.90;;;;;;;-141.97;nan;47678.63;5033053;28;20591;-87
2023/10/23 02:36:34;;;;;;;39.60;20.63;;;;;;;-141.97;nan;47530.59;5050857;28;20181;-88
2023/10/23 02:38:59;;;;;;;44.30;20.70;;;;;;;-141.97;nan;47772.78;5052791;28;20199;-88
2023/10/23 02:41:28;;;;;;;40.23;20.13;;;;;;;-141.97;nan;47699.75;5069932;28;20230;-87
2023/10/23 02:43:53;;;;;;;46.70;20.33;;;;;;;-141.97;nan;47611.34;5032023;28;20189;-86
2023/10/23 02:46:20;;;;;;;43.63;20.50;;;;;;;-141.97;nan;47592.13;5028470;28;20218;-88
2023/10/23 02:48:45;;;;;;;36.23;18.23;;;;;;;-141.97;nan;47697.84;5029489;28;20214;-88
2023/10/23 02:51:10;;;;;;;39.37;18.87;;;;;;;-141.97;nan;47567.13;5063860;28;20215;-86
2023/10/23 02:53:36;;;;;;;40.73;17.93;;;;;;;-141.97;nan;47688.22;5070567;28;20189;-85
2023/10/23 02:56:02;;;;;;;37.03;17.50;;;;;;;-141.97;nan;47682.47;5056397;28;20182;-85
2023/10/23 02:58:27;;;;;;;39.80;18.50;;;;;;;-141.97;nan;47826.63;5033781;28;20206;-88
2023/10/23 03:00:53;;;;;;;33.10;17.43;;;;;;;-141.97;nan;47684.38;5031633;28;20178;-89
2023/10/23 03:03:18;;;;;;;32.67;16.63;;;;;;;-141.97;nan;47659.38;5031933;28;20196;-87
2023/10/23 03:05:43;;;;;;;30.47;16.47;;;;;;;-141.97;nan;47799.72;5062067;28;20189;-87
2023/10/23 03:08:09;;;;;;;38.67;16.77;;;;;;;-141.97;nan;47707.44;5070745;28;20213;-86
2023/10/23 03:10:34;;;;;;;31.10;16.03;;;;;;;-141.97;nan;47713.22;5069350;28;20189;-87
2023/10/23 03:13:00;;;;;;;34.43;15.87;;;;;;;-141.97;nan;47711.28;5043576;28;20240;-87
2023/10/23 03:15:25;;;;;;;30.17;15.70;;;;;;;-141.97;nan;47834.31;5030430;28;20178;-87
2023/10/23 03:17:51;;;;;;;37.07;17.50;;;;;;;-141.97;nan;47830.47;5030261;28;20237;-87
2023/10/23 03:20:16;;;;;;;39.17;18.40;;;;;;;-141.97;nan;47647.84;5029113;28;20583;-87
2023/10/23 03:22:41;;;;;;;40.93;19.07;;;;;;;-141.97;nan;47818.94;5030796;28;20251;-87
2023/10/23 03:25:08;;;;;;;33.43;17.83;;;;;;;-141.97;nan;47799.72;5013598;28;20191;-88
2023/10/23 03:27:34;;;;;;;40.57;17.10;;;;;;;-141.97;nan;47699.75;5010491;28;20186;-88
2023/10/23 03:29:59;;;;;;;40.33;16.70;;;;;;;-141.97;nan;47634.41;5011635;28;20170;-88
2023/10/23 03:32:25;;;;;;;35.23;16.63;;;;;;;-141.97;nan;47788.19;5011863;28;20194;-87
2023/10/23 03:34:51;;;;;;;42.40;16.77;;;;;;;-141.97;nan;47572.91;5011773;28;20174;-87
2023/10/23 03:37:16;;;;;;;38.70;17.13;;;;;;;-141.97;nan;47653.63;5010725;28;20172;-87
2023/10/23 03:39:42;;;;;;;37.50;16.63;;;;;;;-141.97;nan;47701.69;5010586;28;20618;-87
2023/10/23 03:42:08;;;;;;;39.93;17.37;;;;;;;-141.97;nan;47803.56;5042800;28;20177;-87
2023/10/23 03:44:34;;;;;;;35.47;17.33;;;;;;;-141.97;nan;47576.75;5054375;28;20231;-88
2023/10/23 03:47:00;;;;;;;43.30;17.93;;;;;;;-141.97;nan;47728.59;5071160;28;20663;-87
2023/10/23 03:49:26;;;;;;;39.73;17.67;;;;;;;-141.97;nan;47657.47;5035968;28;20237;-87
2023/10/23 03:51:51;;;;;;;34.83;17.23;;;;;;;-141.97;nan;47803.56;5032011;28;20180;-85
2023/10/23 03:54:17;;;;;;;33.43;17.27;;;;;;;-141.97;nan;47665.16;5055623;28;20242;-86
2023/10/23 03:56:42;;;;;;;52.23;19.33;;;;;;;-141.97;nan;47711.28;5052163;28;20172;-85
2023/10/23 03:59:07;;;;;;;55.03;21.33;;;;;;;-141.97;nan;47636.31;5039136;28;20233;-86
2023/10/23 04:01:33;;;;;;;58.83;21.27;;;;;;;-141.97;nan;47724.75;5031078;28;20276;-87
2023/10/23 04:03:58;;;;;;;56.67;23.10;;;;;;;-141.97;nan;47634.41;5051333;28;20185;-89
2023/10/23 04:06:23;;;;;;;40.10;17.63;;;;;;;-141.97;nan;47657.47;5031941;28;20720;-87
2023/10/23 04:08:52;;;;;;;52.00;22.67;;;;;;;-141.97;nan;47674.78;5032447;28;20208;-87
2023/10/23 04:11:18;;;;;;;54.97;21.57;;;;;;;-141.97;nan;47615.19;5031848;28;20280;-88
2023/10/23 04:13:43;;;;;;;65.63;23.33;;;;;;;-141.97;nan;47584.44;5034481;28;20216;-90
2023/10/23 04:16:08;;;;;;;64.13;20.90;;;;;;;-141.97;nan;47776.63;5050970;28;20185;-89
2023/10/23 04:18:34;;;;;;;51.47;18.50;;;;;;;-141.97;nan;47563.28;5034626;28;20188;-88
2023/10/23 04:21:02;;;;;;;42.80;19.17;;;;;;;-141.97;nan;47742.03;5034861;28;20260;-89
2023/10/23 04:23:28;;;;;;;40.90;19.90;;;;;;;-141.97;nan;47597.88;5051559;28;20160;-87
2023/10/23 04:25:55;;;;;;;44.57;18.30;;;;;;;-141.97;nan;47572.91;5027677;28;20177;-88
2023/10/23 04:28:20;;;;;;;38.03;19.73;;;;;;;-141.97;nan;47655.53;5048708;28;20807;-88
2023/10/23 04:30:46;;;;;;;50.87;21.90;;;;;;;-141.97;nan;47703.59;5058376;28;20263;-87
2023/10/23 04:33:11;;;;;;;73.43;34.50;;;;;;;-141.97;nan;47669.00;5050168;28;20271;-88
2023/10/23 04:35:36;;;;;;;84.03;30.03;;;;;;;-141.97;nan;47811.25;5046633;28;20609;-87
2023/10/23 04:38:02;;;;;;;68.37;27.50;;;;;;;-141.97;nan;47830.47;5048826;28;20274;-85
2023/10/23 04:40:28;;;;;;;50.37;22.93;;;;;;;-141.97;nan;47624.78;5031329;28;20722;-90
2023/10/23 04:42:53;;;;;;;53.53;22.20;;;;;;;-141.97;nan;47659.38;5048565;28;20247;-90
2023/10/23 04:45:18;;;;;;;57.73;22.40;;;;;;;-141.97;nan;47818.94;5048112;28;20236;-90
2023/10/23 04:47:44;;;;;;;187.47;71.43;;;;;;;-141.97;nan;47611.34;5029606;28;21934;-90
2023/10/23 04:50:12;;;;;;;116.50;46.20;;;;;;;-141.97;nan;47601.72;5019469;28;20237;-88
2023/10/23 04:52:38;;;;;;;124.30;47.13;;;;;;;-141.97;nan;47653.63;5036734;28;20174;-90
2023/10/23 04:55:04;;;;;;;118.70;48.23;;;;;;;-141.97;nan;47622.88;5026334;28;20177;-91
2023/10/23 04:57:29;;;;;;;105.07;44.60;;;;;;;-141.97;nan;47659.38;5029769;28;20490;-89
2023/10/23 04:59:55;;;;;;;90.60;38.33;;;;;;;-141.97;nan;47799.72;5029415;28;20257;-89
2023/10/23 05:02:21;;;;;;;74.47;32.93;;;;;;;-141.97;nan;47826.63;5053488;28;20657;-90
2023/10/23 05:04:46;;;;;;;60.43;25.57;;;;;;;-141.97;nan;47663.22;5060346;28;20188;-89
2023/10/23 05:07:12;;;;;;;63.27;29.10;;;;;;;-141.97;nan;47674.78;5056558;28;20294;-89
2023/10/23 05:09:37;;;;;;;64.33;26.97;;;;;;;-141.97;nan;47820.84;5056737;28;20173;-91
2023/10/23 05:12:03;;;;;;;60.13;26.93;;;;;;;-141.97;nan;47653.63;5055482;28;20174;-90
2023/10/23 05:14:28;;;;;;;148.33;84.47;;;;;;;-141.97;nan;47653.63;5073816;28;20189;-88
2023/10/23 05:16:53;;;;;;;82.70;33.00;;;;;;;-141.97;nan;47749.72;5075587;28;20742;-88
2023/10/23 05:19:19;;;;;;;70.97;34.73;;;;;;;-141.97;nan;47594.03;5071718;28;20485;-89
2023/10/23 05:21:44;;;;;;;78.93;39.97;;;;;;;-141.97;nan;47707.44;5072225;28;20206;-91
2023/10/23 05:24:10;;;;;;;55.27;25.17;;;;;;;-141.97;nan;47736.28;5056592;28;20237;-89
2023/10/23 05:26:35;;;;;;;49.97;23.03;;;;;;;-141.97;nan;47830.47;5075413;28;20224;-89
2023/10/23 05:29:00;;;;;;;45.10;18.70;;;;;;;-141.97;nan;47649.78;5043973;28;20193;-89
2023/10/23 05:31:26;;;;;;;43.20;20.83;;;;;;;-141.97;nan;47642.09;5056799;28;20180;-90
2023/10/23 05:33:51;;;;;;;51.70;27.50;;;;;;;-141.97;nan;47720.91;5055397;28;20609;-90
2023/10/23 05:36:17;;;;;;;67.77;33.57;;;;;;;-141.97;nan;47695.91;5040028;28;20188;-90
2023/10/23 05:38:42;;;;;;;74.10;35.83;;;;;;;-141.97;nan;47680.53;5033880;28;20185;-90
2023/10/23 05:41:09;;;;;;;76.93;33.93;;;;;;;-141.97;nan;47647.84;5051758;28;20192;-90
2023/10/23 05:43:35;;;;;;;75.57;35.60;;;;;;;-141.97;nan;47672.84;5033918;28;20271;-90
2023/10/23 05:46:03;;;;;;;70.90;31.37;;;;;;;-141.97;nan;47672.84;5033293;28;20233;-88
2023/10/23 05:48:28;;;;;;;81.50;34.13;;;;;;;-141.97;nan;47657.47;5048344;28;20213;-89
2023/10/23 05:51:03;;;;;;;77.27;35.73;;;;;;;-141.97;nan;47672.84;5028691;28;20236;-90
2023/10/23 05:53:29;;;;;;;55.53;22.73;;;;;;;-141.97;nan;47697.84;5034190;28;20319;-89
2023/10/23 05:56:05;;;;;;;55.83;24.77;;;;;;;-141.97;nan;47561.38;5053836;28;20676;-91
2023/10/23 05:58:33;;;;;;;105.37;46.27;;;;;;;-141.97;nan;47690.16;5052980;28;20184;-90
2023/10/23 06:01:12;;;;;;;50.40;24.47;;;;;;;-141.97;nan;47697.84;5070826;28;20181;-89
2023/10/23 06:03:38;;;;;;;59.47;26.40;;;;;;;-141.97;nan;47838.16;5051761;28;20188;-90
2023/10/23 06:06:04;;;;;;;53.07;21.67;;;;;;;-141.97;nan;47688.22;5033541;28;20177;-89
2023/10/23 06:08:29;;;;;;;50.97;19.47;;;;;;;-141.97;nan;47659.38;5052128;28;20342;-90
2023/10/23 06:10:55;;;;;;;40.77;16.73;;;;;;;-141.97;nan;47755.50;5032878;28;20272;-89
2023/10/23 06:13:20;;;;;;;46.27;17.53;;;;;;;-141.97;nan;47603.66;5032815;28;20901;-89
2023/10/23 06:15:47;;;;;;;33.53;16.10;;;;;;;-141.97;nan;47626.72;5029296;28;20177;-89
2023/10/23 06:18:13;;;;;;;41.07;15.67;;;;;;;-141.97;nan;47611.34;5029752;28;20196;-84
2023/10/23 06:20:38;;;;;;;39.13;15.10;;;;;;;-141.97;nan;47711.28;5065239;28;20558;-85
2023/10/23 06:23:04;;;;;;;40.83;16.37;;;;;;;-141.97;nan;47655.53;5069328;28;20222;-84
2023/10/23 06:25:30;;;;;;;40.63;14.97;;;;;;;-141.97;nan;47678.63;5034344;28;20173;-85
2023/10/23 06:27:57;;;;;;;39.10;16.77;;;;;;;-141.97;nan;47707.44;5051827;28;20282;-85
2023/10/23 06:30:22;;;;;;;38.60;16.50;;;;;;;-141.97;nan;47767.03;5051979;28;20174;-86
2023/10/23 06:32:48;;;;;;;41.43;15.60;;;;;;;-141.97;nan;47676.69;5034254;28;20161;-85
2023/10/23 06:35:17;;;;;;;31.70;12.60;;;;;;;-141.97;nan;47657.47;5069317;28;20162;-86
2023/10/23 06:37:42;;;;;;;28.80;11.13;;;;;;;-141.97;nan;47682.47;5052878;28;20172;-88
2023/10/23 06:40:08;;;;;;;32.43;12.67;;;;;;;-141.97;nan;47576.75;5034182;28;20747;-89
2023/10/23 06:42:34;;;;;;;33.53;11.10;;;;;;;-141.97;nan;47578.66;5053134;28;20173;-90
2023/10/23 06:45:00;;;;;;;30.93;10.13;;;;;;;-141.97;nan;47588.28;5037458;28;20221;-88
2023/10/23 06:47:26;;;;;;;27.63;9.80;;;;;;;-141.97;nan;47709.38;5054733;28;20197;-90
2023/10/23 06:49:52;;;;;;;26.93;9.60;;;;;;;-141.97;nan;47715.13;5051034;28;20196;-89
2023/10/23 06:52:17;;;;;;;31.87;10.67;;;;;;;-141.97;nan;47597.88;5036064;28;20169;-89
2023/10/23 06:54:42;;;;;;;33.13;11.13;;;;;;;-141.97;nan;47551.75;5034242;28;20195;-86
2023/10/23 06:57:08;;;;;;;33.17;10.20;;;;;;;-141.97;nan;47634.41;5051603;28;20603;-89
2023/10/23 06:59:34;;;;;;;31.40;10.83;;;;;;;-141.97;nan;47680.53;5033409;28;20215;-89
2023/10/23 07:02:02;;;;;;;42.67;17.33;;;;;;;-141.97;nan;47786.25;5033882;28;20200;-88
2023/10/23 07:04:28;;;;;;;33.43;13.77;;;;;;;-141.97;nan;47503.69;5033765;28;20168;-88
2023/10/23 07:06:55;;;;;;;41.67;12.43;;;;;;;-141.97;nan;47595.97;5051712;28;20166;-86
2023/10/23 07:09:20;;;;;;;37.80;11.50;;;;;;;-141.97;nan;47619.03;5033399;28;20185;-90
2023/10/23 07:11:50;;;;;;;40.23;11.93;;;;;;;-141.97;nan;47546.00;5037254;28;20164;-90
2023/10/23 07:14:15;;;;;;;38.37;11.97;;;;;;;-141.97;nan;47676.69;5054258;28;20167;-89
2023/10/23 07:16:42;;;;;;;42.47;14.67;;;;;;;-141.97;nan;47519.06;5035752;28;20180;-88
2023/10/23 07:19:08;;;;;;;38.27;11.83;;;;;;;-141.97;nan;47567.13;5026451;28;20185;-87
2023/10/23 07:21:34;;;;;;;36.67;11.80;;;;;;;-141.97;nan;47513.31;5032330;28;20186;-90
2023/10/23 07:23:59;;;;;;;36.03;11.50;;;;;;;-141.97;nan;47471.03;5050488;28;20614;-88
2023/10/23 07:26:24;;;;;;;33.23;10.23;;;;;;;-141.97;nan;47734.34;5033908;28;20229;-89
2023/10/23 07:28:50;;;;;;;31.77;10.50;;;;;;;-141.97;nan;47476.78;5054646;28;20205;-87
2023/10/23 07:31:16;;;;;;;30.23;11.03;;;;;;;-141.97;nan;47582.50;5053600;28;20173;-87
2023/10/23 07:33:42;;;;;;;28.53;10.00;;;;;;;-141.97;nan;47603.66;5033322;28;20663;-88
2023/10/23 07:36:13;;;;;;;25.83;10.30;;;;;;;-141.97;nan;47803.56;5050998;28;20273;-88
2023/10/23 07:38:43;;;;;;;33.37;14.77;;;;;;;-141.97;nan;47544.06;5032994;28;20546;-87
2023/10/23 07:41:13;;;;;;;43.40;16.47;;;;;;;-141.97;nan;47657.47;5050081;28;20166;-88
2023/10/23 07:43:38;;;;;;;38.33;15.00;;;;;;;-141.97;nan;47845.84;5051327;28;20173;-88
2023/10/23 07:46:06;;;;;;;42.43;15.63;;;;;;;-141.97;nan;47667.06;5029148;28;20287;-86
2023/10/23 07:48:32;;;;;;;36.43;12.17;;;;;;;-141.97;nan;47678.63;5030824;28;20193;-88
2023/10/23 07:50:58;;;;;;;35.73;14.37;;;;;;;-141.97;nan;47707.44;5035697;28;20174;-87
2023/10/23 07:53:24;;;;;;;33.80;14.70;;;;;;;-141.97;nan;47742.03;5044635;28;20170;-88
2023/10/23 07:55:50;;;;;;;35.27;11.57;;;;;;;-141.97;nan;47507.53;5039558;28;20729;-87
2023/10/23 07:58:15;;;;;;;26.10;9.00;;;;;;;-141.97;nan;47649.78;5030804;28;20253;-88
2023/10/23 08:00:41;;;;;;;20.90;9.43;;;;;;;-141.97;nan;47767.03;5027338;28;20233;-86
2023/10/23 08:03:06;;;;;;;25.83;9.47;;;;;;;-141.97;nan;47542.16;5048730;28;20212;-87
2023/10/23 08:05:32;;;;;;;25.10;8.97;;;;;;;-141.97;nan;47555.59;5035655;28;20627;-88
2023/10/23 08:07:57;;;;;;;28.50;9.27;;;;;;;-141.97;nan;47519.06;5028816;28;20355;-87
2023/10/23 08:10:23;;;;;;;25.27;8.83;;;;;;;-141.97;nan;47532.53;5029013;28;20185;-88
2023/10/23 08:12:48;;;;;;;26.53;8.67;;;;;;;-141.97;nan;47718.97;5040401;28;20688;-87
2023/10/23 08:15:14;;;;;;;27.50;8.23;;;;;;;-141.97;nan;47492.16;5031399;28;20251;-87
2023/10/23 08:17:40;;;;;;;27.50;8.93;;;;;;;-141.97;nan;47728.59;5031072;28;20170;-87
2023/10/23 08:20:07;;;;;;;37.93;8.90;;;;;;;-141.97;nan;47718.97;5030330;28;20190;-87
2023/10/23 08:22:32;;;;;;;25.50;7.93;;;;;;;-141.97;nan;47670.91;5030126;28;20679;-87
2023/10/23 08:24:58;;;;;;;23.27;8.70;;;;;;;-141.97;nan;47770.88;5031370;28;20186;-86
2023/10/23 08:27:24;;;;;;;26.63;8.53;;;;;;;-141.97;nan;47603.66;5030159;28;20202;-88
2023/10/23 08:29:50;;;;;;;34.17;8.67;;;;;;;-141.97;nan;47601.72;5030683;28;20200;-87
2023/10/23 08:32:16;;;;;;;26.63;8.17;;;;;;;-141.97;nan;47580.59;5031504;28;20162;-87
2023/10/23 08:34:41;;;;;;;25.90;8.43;;;;;;;-141.97;nan;47611.34;5029678;28;20226;-87
2023/10/23 08:37:07;;;;;;;28.23;9.30;;;;;;;-141.97;nan;47453.72;5029474;28;20170;-87
2023/10/23 08:39:32;;;;;;;25.10;8.03;;;;;;;-141.97;nan;47534.44;5030890;28;20273;-87
2023/10/23 08:42:00;;;;;;;25.63;9.77;;;;;;;-141.97;nan;47503.69;5036245;28;20162;-86
2023/10/23 08:44:25;;;;;;;27.50;9.40;;;;;;;-141.97;nan;47751.66;5034263;28;20579;-87
2023/10/23 08:46:51;;;;;;;27.57;8.33;;;;;;;-141.97;nan;47538.28;5032349;28;20182;-85
2023/10/23 08:49:16;;;;;;;25.33;8.63;;;;;;;-141.97;nan;47526.75;5050753;28;20616;-87
2023/10/23 08:51:47;;;;;;;29.57;8.63;;;;;;;-141.97;nan;47574.81;5051927;28;20173;-86
2023/10/23 08:54:19;;;;;;;25.93;7.87;;;;;;;-141.97;nan;47561.38;5044546;28;20235;-85
2023/10/23 08:56:52;;;;;;;25.77;8.10;;;;;;;-141.97;nan;47547.91;5055792;28;20200;-87
2023/10/23 08:59:17;;;;;;;25.63;8.43;;;;;;;-141.97;nan;47732.44;5042902;28;20417;-86
2023/10/23 09:01:42;;;;;;;30.60;10.27;;;;;;;-141.97;nan;47442.19;5068234;28;20170;-86
2023/10/23 09:04:10;;;;;;;22.42;8.25;;;;;;;-141.97;nan;47521.00;5054968;28;20588;-87
2023/10/23 09:06:35;;;;;;;23.95;8.05;;;;;;;-141.97;nan;47694.00;5049909;28;20168;-83
2023/10/23 09:09:02;;;;;;;26.33;8.30;;;;;;;-141.97;nan;47574.81;5079044;28;20192;-86
2023/10/23 09:11:50;;;;;;;27.45;8.52;;;;;;;-141.97;nan;47503.69;5059600;28;20226;-87
2023/10/23 09:14:26;;;;;;;26.65;9.15;;;;;;;-141.97;nan;47519.06;5036287;28;20181;-86
2023/10/23 09:16:54;;;;;;;24.20;8.05;;;;;;;-141.97;nan;47453.72;5011775;28;20192;-85
2023/10/23 09:19:41;;;;;;;24.80;8.13;;;;;;;-141.97;nan;47522.91;5009980;28;20193;-84
2023/10/23 09:22:06;;;;;;;30.95;8.57;;;;;;;-141.97;nan;47476.78;4975669;28;20174;-85
2023/10/23 09:24:32;;;;;;;27.65;8.90;;;;;;;-141.97;nan;47676.69;4991547;28;20170;-87
2023/10/23 09:26:58;;;;;;;27.65;9.13;;;;;;;-141.97;nan;47561.38;4991463;28;20249;-86
2023/10/23 09:29:27;;;;;;;25.52;9.10;;;;;;;-141.97;nan;47513.31;4974084;28;20328;-86
2023/10/23 09:31:55;;;;;;;28.38;8.98;;;;;;;-141.97;nan;47522.91;4975270;28;20297;-87
2023/10/23 09:34:21;;;;;;;34.20;8.40;;;;;;;-141.97;nan;47499.84;4992483;28;20306;-87
2023/10/23 09:36:51;;;;;;;32.28;8.32;;;;;;;-141.97;nan;47428.75;4994031;28;20233;-87
2023/10/23 09:39:22;;;;;;;28.02;7.95;;;;;;;-141.97;nan;47694.00;4976078;28;20212;-87
2023/10/23 09:41:48;;;;;;;28.65;8.52;;;;;;;-141.97;nan;47732.44;4992479;28;20167;-88
2023/10/23 09:44:14;;;;;;;26.17;8.07;;;;;;;-141.97;nan;47492.16;4992458;28;20214;-88
2023/10/23 09:46:42;;;;;;;25.85;8.60;;;;;;;-141.97;nan;47501.78;4975564;28;20186;-86
2023/10/23 09:49:09;;;;;;;27.77;7.68;;;;;;;-141.97;nan;47472.94;4992863;28;20195;-88
2023/10/23 09:51:41;;;;;;;30.35;7.70;;;;;;;-141.97;nan;47346.09;5014621;28;20197;-86
2023/10/23 09:54:07;;;;;;;22.55;7.95;;;;;;;-141.97;nan;47476.78;5035681;28;20174;-85
2023/10/23 09:56:32;;;;;;;25.77;7.85;;;;;;;-141.97;nan;47786.25;5053589;28;20323;-86
2023/10/23 09:59:00;;;;;;;24.20;7.63;;;;;;;-141.97;nan;47526.75;5053869;28;20252;-86
2023/10/23 10:01:35;;;;;;;25.60;8.07;;;;;;;-141.97;nan;47492.16;5053674;28;20183;-87
2023/10/23 10:04:09;;;;;;;22.42;8.23;;;;;;;-141.97;nan;47359.56;5034315;28;20339;-87
2023/10/23 10:06:38;;;;;;;25.40;8.00;;;;;;;-141.97;nan;47396.06;5034903;28;20174;-87
2023/10/23 10:09:12;;;;;;;27.83;8.52;;;;;;;-141.97;nan;47440.28;5036138;28;20215;-86
2023/10/23 10:11:39;;;;;;;27.63;8.45;;;;;;;-141.97;nan;47449.88;5041085;28;20185;-87
2023/10/23 10:14:07;;;;;;;25.13;8.32;;;;;;;-141.97;nan;47388.38;5057897;28;20172;-85
2023/10/23 10:16:33;;;;;;;30.40;8.40;;;;;;;-141.97;nan;47365.31;5077835;28;20272;-85
2023/10/23 10:19:00;;;;;;;25.85;8.13;;;;;;;-141.97;nan;47340.34;5058973;28;20233;-86
2023/10/23 10:21:31;;;;;;;20.02;7.63;;;;;;;-141.97;nan;47692.06;5073625;28;20180;-85
2023/10/23 10:23:59;;;;;;;24.65;7.97;;;;;;;-141.97;nan;47244.25;5061011;28;20183;-84
2023/10/23 10:26:25;;;;;;;27.83;8.00;;;;;;;-141.97;nan;47622.88;5053662;28;20270;-87
2023/10/23 10:28:53;;;;;;;29.55;8.10;;;;;;;-141.97;nan;47663.22;5034982;28;20224;-85
2023/10/23 10:31:21;;;;;;;21.65;7.82;;;;;;;-141.97;nan;47403.75;5053430;28;20680;-86
2023/10/23 10:33:46;;;;;;;25.15;8.02;;;;;;;-141.97;nan;47551.75;5052782;28;20268;-86
2023/10/23 10:36:15;;;;;;;28.40;8.18;;;;;;;-141.97;nan;47403.75;5064230;28;20273;-87
2023/10/23 10:38:41;;;;;;;25.38;8.07;;;;;;;-141.97;nan;47428.75;5056500;28;20165;-87
2023/10/23 10:41:19;;;;;;;34.47;8.32;;;;;;;-141.97;nan;47476.78;5040057;28;20165;-87
2023/10/23 10:43:52;;;;;;;35.55;7.82;;;;;;;-141.97;nan;47340.34;5051937;28;20180;-87
2023/10/23 10:46:26;;;;;;;37.83;8.68;;;;;;;-141.97;nan;47488.31;5034441;28;20639;-87
2023/10/23 10:48:54;;;;;;;32.20;8.98;;;;;;;-141.97;nan;47449.88;5052736;28;20219;-88
2023/10/23 10:51:23;;;;;;;23.90;7.85;;;;;;;-141.97;nan;47463.34;5053577;28;20231;-86
2023/10/23 10:53:58;;;;;;;31.85;8.18;;;;;;;-141.97;nan;47697.84;5052255;28;20192;-87
2023/10/23 10:56:23;;;;;;;31.25;8.60;;;;;;;-141.97;nan;47405.69;5034748;28;20926;-87
2023/10/23 10:58:49;;;;;;;29.65;8.18;;;;;;;-141.97;nan;47405.69;5035633;28;20165;-88
2023/10/23 11:01:14;;;;;;;30.00;8.02;;;;;;;-141.97;nan;47355.72;5051728;28;20603;-87
2023/10/23 11:03:41;;;;;;;30.05;7.35;;;;;;;-141.97;nan;47290.38;5033628;28;20188;-87
2023/10/23 11:06:07;;;;;;;29.65;9.00;;;;;;;-141.97;nan;47365.31;5034461;28;20244;-88
2023/10/23 11:08:34;;;;;;;27.52;7.88;;;;;;;-141.97;nan;47469.09;5053587;28;20212;-88
2023/10/23 11:11:06;;;;;;;31.85;7.80;;;;;;;-141.97;nan;47457.56;5036806;28;20184;-87
2023/10/23 11:13:32;;;;;;;25.52;7.65;;;;;;;-141.97;nan;47638.25;5036443;28;20187;-87
2023/10/23 11:15:58;;;;;;;25.35;8.32;;;;;;;-141.97;nan;47355.72;5034350;28;20177;-88